createdAt,value
2023-02-18T00:00:05.309Z,65.26
2023-02-18T00:00:14.785Z,64.62
2023-02-18T00:00:23.679Z,64.58
2023-02-18T00:00:30.694Z,63.41
2023-02-18T00:00:37.859Z,64.13
2023-02-18T00:00:57.818Z,63.45
2023-02-18T00:01:09.321Z,64.11
2023-02-18T00:01:17.400Z,64.72
2023-02-18T00:01:26.019Z,63.72
2023-02-18T00:01:33.485Z,63.78
2023-02-18T00:01:40.525Z,63.54
2023-02-18T00:01:47.672Z,63.70
2023-02-18T00:02:06.671Z,63.87
2023-02-18T00:02:13.869Z,64.11
2023-02-18T00:02:21.001Z,63.68
2023-02-18T00:02:28.217Z,63.98
2023-02-18T00:02:35.448Z,64.25
2023-02-18T00:02:52.173Z,64.32
2023-02-18T00:03:00.665Z,64.41
2023-02-18T00:03:07.731Z,64.28
2023-02-18T00:03:27.919Z,64.39
2023-02-18T00:03:35.523Z,63.96
2023-02-18T00:03:42.990Z,64.42
2023-02-18T00:03:50.323Z,64.56
2023-02-18T00:03:57.615Z,63.82
2023-02-18T00:04:17.819Z,63.63
2023-02-18T00:04:24.928Z,63.33
2023-02-18T00:04:32.197Z,63.00
2023-02-18T00:04:39.292Z,63.12
2023-02-18T00:04:46.368Z,63.34
2023-02-18T00:05:06.949Z,62.85
2023-02-18T00:05:14.819Z,62.94
2023-02-18T00:05:21.964Z,62.77
2023-02-18T00:05:29.462Z,62.52
2023-02-18T00:05:36.540Z,62.30
2023-02-18T00:05:56.630Z,62.63
2023-02-18T00:06:10.484Z,63.15
2023-02-18T00:06:18.401Z,63.84
2023-02-18T00:06:26.928Z,63.72
2023-02-18T00:06:35.892Z,64.06
2023-02-18T00:06:44.681Z,63.42
2023-02-18T00:06:51.845Z,63.20
2023-02-18T00:06:59.692Z,62.94
2023-02-18T00:07:06.827Z,62.35
2023-02-18T00:07:25.870Z,62.50
2023-02-18T00:07:34.119Z,62.66
2023-02-18T00:07:41.692Z,61.80
2023-02-18T00:07:48.822Z,62.45
2023-02-18T00:07:55.916Z,62.89
2023-02-18T00:08:16.166Z,61.65
2023-02-18T00:08:23.273Z,61.57
2023-02-18T00:08:30.515Z,61.96
2023-02-18T00:08:37.506Z,62.13
2023-02-18T00:08:45.364Z,61.81
2023-02-18T00:09:05.398Z,63.12
2023-02-18T00:09:12.692Z,63.51
2023-02-18T00:09:19.767Z,63.95
2023-02-18T00:09:26.958Z,63.77
2023-02-18T00:09:35.562Z,64.15
2023-02-18T00:09:55.666Z,64.68
2023-02-18T00:10:03.249Z,64.47
2023-02-18T00:10:12.350Z,64.45
2023-02-18T00:10:19.464Z,64.22
2023-02-18T00:10:26.576Z,63.76
2023-02-18T00:10:45.851Z,63.25
2023-02-18T00:10:53.354Z,62.79
2023-02-18T00:11:00.470Z,62.87
2023-02-18T00:11:09.353Z,63.16
2023-02-18T00:11:17.196Z,63.64
2023-02-18T00:11:37.763Z,63.31
2023-02-18T00:11:44.778Z,62.33
2023-02-18T00:11:51.929Z,62.59
2023-02-18T00:11:59.009Z,62.96
2023-02-18T00:12:06.317Z,62.70
2023-02-18T00:12:26.338Z,63.65
2023-02-18T00:12:33.587Z,63.44
2023-02-18T00:12:40.786Z,63.39
2023-02-18T00:12:47.874Z,62.94
2023-02-18T00:13:06.863Z,62.05
2023-02-18T00:13:13.950Z,62.10
2023-02-18T00:13:21.033Z,61.35
2023-02-18T00:13:28.083Z,61.67
2023-02-18T00:13:35.273Z,61.79
2023-02-18T00:13:57.484Z,61.54
2023-02-18T00:14:05.620Z,61.23
2023-02-18T00:14:13.951Z,61.27
2023-02-18T00:14:20.939Z,60.70
2023-02-18T00:14:27.964Z,60.40
2023-02-18T00:14:46.876Z,61.20
2023-02-18T00:14:54.049Z,60.91
2023-02-18T00:15:01.130Z,60.48
2023-02-18T00:15:09.685Z,61.31
2023-02-18T00:15:17.809Z,60.34
2023-02-18T00:15:36.920Z,60.60
2023-02-18T00:15:44.081Z,60.43
2023-02-18T00:15:51.215Z,59.48
2023-02-18T00:16:01.146Z,58.88
2023-02-18T00:16:10.040Z,58.52
2023-02-18T00:16:17.325Z,58.64
2023-02-18T00:16:37.274Z,58.93
2023-02-18T00:16:46.178Z,59.39
2023-02-18T00:16:53.303Z,59.16
2023-02-18T00:17:00.379Z,59.11
2023-02-18T00:17:07.372Z,58.98
2023-02-18T00:17:26.365Z,59.52
2023-02-18T00:17:33.353Z,59.84
2023-02-18T00:17:40.464Z,59.78
2023-02-18T00:17:47.476Z,59.89
2023-02-18T00:18:07.538Z,59.24
2023-02-18T00:18:15.646Z,59.54
2023-02-18T00:18:22.782Z,59.09
2023-02-18T00:18:29.810Z,59.57
2023-02-18T00:18:37.222Z,59.93
2023-02-18T00:18:56.824Z,59.80
2023-02-18T00:19:05.211Z,60.16
2023-02-18T00:19:14.066Z,60.25
2023-02-18T00:19:21.399Z,60.43
2023-02-18T00:19:28.478Z,60.24
2023-02-18T00:19:36.561Z,61.33
2023-02-18T00:19:55.704Z,60.51
2023-02-18T00:20:02.772Z,60.35
2023-02-18T00:20:10.262Z,59.83
2023-02-18T00:20:17.428Z,59.89
2023-02-18T00:20:38.728Z,60.79
2023-02-18T00:20:45.753Z,60.24
2023-02-18T00:20:52.796Z,60.64
2023-02-18T00:20:59.938Z,59.78
2023-02-18T00:21:07.569Z,59.64
2023-02-18T00:21:28.281Z,60.06
2023-02-18T00:21:35.865Z,60.13
2023-02-18T00:21:42.924Z,60.50
2023-02-18T00:21:50.007Z,60.64
2023-02-18T00:21:57.072Z,60.63
2023-02-18T00:22:16.144Z,61.53
2023-02-18T00:22:23.267Z,61.05
2023-02-18T00:22:30.290Z,61.06
2023-02-18T00:22:37.286Z,60.69
2023-02-18T00:22:57.276Z,61.57
2023-02-18T00:23:04.335Z,61.64
2023-02-18T00:23:11.625Z,61.52
2023-02-18T00:23:18.776Z,61.58
2023-02-18T00:23:26.200Z,61.53
2023-02-18T00:23:45.397Z,60.36
2023-02-18T00:23:52.432Z,60.24
2023-02-18T00:23:59.621Z,59.67
2023-02-18T00:24:08.389Z,59.92
2023-02-18T00:24:15.950Z,59.61
2023-02-18T00:24:36.444Z,60.18
2023-02-18T00:24:43.506Z,60.21
2023-02-18T00:24:50.650Z,59.43
2023-02-18T00:24:57.695Z,59.53
2023-02-18T00:25:16.851Z,59.62
2023-02-18T00:25:24.911Z,59.24
2023-02-18T00:25:31.979Z,58.76
2023-02-18T00:25:39.132Z,59.04
2023-02-18T00:25:46.293Z,59.01
2023-02-18T00:25:59.795Z,59.71
2023-02-18T00:26:08.784Z,59.59
2023-02-18T00:26:17.216Z,59.86
2023-02-18T00:26:37.003Z,59.90
2023-02-18T00:26:44.129Z,59.88
2023-02-18T00:26:51.732Z,60.20
2023-02-18T00:26:59.774Z,60.24
2023-02-18T00:27:06.891Z,59.71
2023-02-18T00:27:21.003Z,60.14
2023-02-18T00:27:28.218Z,59.66
2023-02-18T00:27:35.356Z,59.88
2023-02-18T00:27:55.439Z,60.08
2023-02-18T00:28:02.497Z,61.03
2023-02-18T00:28:10.583Z,60.49
2023-02-18T00:28:17.645Z,61.21
2023-02-18T00:28:36.727Z,60.69
2023-02-18T00:28:44.206Z,60.65
2023-02-18T00:28:51.884Z,60.05
2023-02-18T00:29:00.254Z,59.24
2023-02-18T00:29:07.516Z,58.69
2023-02-18T00:29:29.744Z,58.16
2023-02-18T00:29:36.830Z,58.48
2023-02-18T00:29:46.032Z,58.02
2023-02-18T00:29:53.135Z,58.06
2023-02-18T00:30:00.420Z,58.70
2023-02-18T00:30:08.281Z,58.72
2023-02-18T00:30:15.466Z,58.71
2023-02-18T00:30:40.056Z,58.89
2023-02-18T00:30:47.200Z,59.02
2023-02-18T00:30:54.334Z,59.80
2023-02-18T00:31:06.389Z,59.53
2023-02-18T00:31:15.531Z,59.28
2023-02-18T00:31:24.130Z,59.01
2023-02-18T00:31:32.336Z,58.80
2023-02-18T00:31:41.709Z,58.48
2023-02-18T00:31:48.917Z,58.11
2023-02-18T00:31:56.117Z,58.21
2023-02-18T00:32:16.067Z,58.58
2023-02-18T00:32:23.157Z,58.75
2023-02-18T00:32:30.172Z,59.14
2023-02-18T00:32:38.307Z,58.81
2023-02-18T00:32:45.405Z,58.67
2023-02-18T00:32:59.472Z,58.53
2023-02-18T00:33:07.022Z,57.57
2023-02-18T00:33:26.139Z,57.16
2023-02-18T00:33:33.150Z,57.47
2023-02-18T00:33:42.063Z,57.60
2023-02-18T00:33:49.268Z,58.00
2023-02-18T00:33:57.522Z,57.86
2023-02-18T00:34:05.388Z,58.33
2023-02-18T00:34:26.505Z,58.92
2023-02-18T00:34:34.046Z,58.56
2023-02-18T00:34:43.829Z,58.34
2023-02-18T00:34:50.967Z,58.35
2023-02-18T00:34:58.310Z,58.70
2023-02-18T00:35:05.653Z,58.46
2023-02-18T00:35:24.679Z,58.61
2023-02-18T00:35:31.728Z,59.00
2023-02-18T00:35:39.830Z,59.20
2023-02-18T00:35:46.912Z,58.92
2023-02-18T00:36:01.320Z,59.17
2023-02-18T00:36:09.678Z,59.70
2023-02-18T00:36:18.212Z,59.16
2023-02-18T00:36:26.251Z,59.27
2023-02-18T00:36:45.448Z,59.28
2023-02-18T00:36:52.538Z,58.85
2023-02-18T00:36:59.574Z,59.51
2023-02-18T00:37:06.781Z,59.02
2023-02-18T00:37:26.876Z,58.75
2023-02-18T00:37:35.392Z,59.01
2023-02-18T00:37:42.626Z,58.78
2023-02-18T00:37:51.559Z,58.62
2023-02-18T00:37:58.622Z,58.50
2023-02-18T00:38:05.821Z,58.39
2023-02-18T00:38:25.068Z,58.04
2023-02-18T00:38:32.214Z,58.23
2023-02-18T00:38:39.256Z,58.12
2023-02-18T00:38:46.486Z,57.83
2023-02-18T00:38:55.571Z,58.07
2023-02-18T00:39:16.097Z,57.09
2023-02-18T00:39:23.240Z,56.81
2023-02-18T00:39:30.805Z,56.80
2023-02-18T00:39:39.324Z,56.63
2023-02-18T00:39:46.444Z,57.07
2023-02-18T00:40:06.552Z,56.97
2023-02-18T00:40:15.101Z,57.43
2023-02-18T00:40:22.181Z,57.54
2023-02-18T00:40:30.286Z,57.90
2023-02-18T00:40:38.011Z,57.87
2023-02-18T00:40:57.061Z,56.78
2023-02-18T00:41:04.744Z,55.89
2023-02-18T00:41:11.945Z,56.13
2023-02-18T00:41:19.587Z,56.46
2023-02-18T00:41:28.698Z,56.66
2023-02-18T00:41:36.327Z,56.72
2023-02-18T00:41:56.727Z,57.32
2023-02-18T00:42:03.988Z,58.04
2023-02-18T00:42:11.050Z,58.46
2023-02-18T00:42:18.278Z,58.73
2023-02-18T00:42:25.471Z,58.81
2023-02-18T00:42:41.138Z,58.06
2023-02-18T00:42:48.911Z,57.99
2023-02-18T00:42:55.950Z,57.48
2023-02-18T00:43:15.083Z,57.49
2023-02-18T00:43:23.242Z,57.93
2023-02-18T00:43:30.622Z,58.02
2023-02-18T00:43:37.652Z,58.53
2023-02-18T00:43:59.536Z,58.20
2023-02-18T00:44:06.696Z,58.69
2023-02-18T00:44:14.089Z,59.20
2023-02-18T00:44:21.216Z,59.53
2023-02-18T00:44:28.358Z,59.36
2023-02-18T00:44:37.709Z,59.46
2023-02-18T00:44:45.875Z,59.36
2023-02-18T00:45:07.740Z,59.33
2023-02-18T00:45:15.414Z,59.46
2023-02-18T00:45:22.563Z,59.90
2023-02-18T00:45:29.678Z,59.62
2023-02-18T00:45:36.768Z,60.17
2023-02-18T00:45:56.074Z,60.07
2023-02-18T00:46:03.157Z,59.96
2023-02-18T00:46:10.986Z,59.57
2023-02-18T00:46:18.592Z,59.41
2023-02-18T00:46:26.204Z,59.23
2023-02-18T00:46:48.478Z,59.31
2023-02-18T00:46:55.739Z,58.97
2023-02-18T00:47:02.810Z,58.48
2023-02-18T00:47:09.917Z,58.00
2023-02-18T00:47:17.080Z,57.85
2023-02-18T00:47:36.190Z,56.73
2023-02-18T00:47:43.359Z,57.15
2023-02-18T00:47:50.417Z,57.49
2023-02-18T00:47:57.569Z,57.78
2023-02-18T00:48:17.751Z,57.83
2023-02-18T00:48:24.902Z,58.09
2023-02-18T00:48:31.971Z,58.86
2023-02-18T00:48:40.439Z,58.02
2023-02-18T00:48:49.639Z,58.82
2023-02-18T00:48:56.750Z,58.73
2023-02-18T00:49:16.753Z,58.31
2023-02-18T00:49:23.831Z,58.57
2023-02-18T00:49:31.351Z,58.90
2023-02-18T00:49:39.651Z,59.43
2023-02-18T00:49:47.379Z,59.54
2023-02-18T00:50:07.153Z,58.99
2023-02-18T00:50:14.160Z,58.54
2023-02-18T00:50:21.325Z,59.13
2023-02-18T00:50:28.389Z,59.05
2023-02-18T00:50:37.171Z,58.48
2023-02-18T00:50:56.438Z,59.14
2023-02-18T00:51:05.373Z,59.06
2023-02-18T00:51:13.424Z,59.10
2023-02-18T00:51:20.696Z,59.46
2023-02-18T00:51:28.808Z,59.47
2023-02-18T00:51:36.374Z,59.70
2023-02-18T00:51:55.535Z,60.15
2023-02-18T00:52:02.674Z,60.72
2023-02-18T00:52:10.822Z,60.35
2023-02-18T00:52:18.017Z,60.67
2023-02-18T00:52:37.103Z,60.67
2023-02-18T00:52:44.142Z,60.93
2023-02-18T00:52:51.242Z,60.45
2023-02-18T00:52:58.355Z,61.21
2023-02-18T00:53:05.471Z,61.07
2023-02-18T00:53:26.758Z,61.02
2023-02-18T00:53:33.859Z,60.79
2023-02-18T00:53:40.909Z,60.56
2023-02-18T00:53:49.247Z,60.08
2023-02-18T00:53:57.501Z,60.14
2023-02-18T00:54:16.599Z,59.96
2023-02-18T00:54:23.693Z,59.84
2023-02-18T00:54:31.496Z,59.94
2023-02-18T00:54:39.978Z,60.41
2023-02-18T00:54:47.084Z,60.26
2023-02-18T00:55:07.299Z,60.33
2023-02-18T00:55:14.511Z,60.03
2023-02-18T00:55:21.548Z,60.42
2023-02-18T00:55:28.560Z,60.63
2023-02-18T00:55:38.906Z,60.60
2023-02-18T00:55:48.026Z,60.75
2023-02-18T00:55:55.285Z,60.90
2023-02-18T00:56:14.739Z,61.48
2023-02-18T00:56:24.379Z,61.34
2023-02-18T00:56:31.775Z,60.68
2023-02-18T00:56:38.809Z,61.50
2023-02-18T00:56:45.890Z,61.46
2023-02-18T00:57:05.077Z,61.15
2023-02-18T00:57:12.145Z,61.79
2023-02-18T00:57:19.256Z,61.41
2023-02-18T00:57:26.334Z,61.48
2023-02-18T00:57:45.389Z,62.42
2023-02-18T00:57:53.404Z,61.83
2023-02-18T00:58:00.615Z,62.56
2023-02-18T00:58:07.810Z,62.14
2023-02-18T00:58:15.582Z,62.41
2023-02-18T00:58:35.525Z,62.39
2023-02-18T00:58:44.603Z,61.94
2023-02-18T00:58:52.369Z,62.52
2023-02-18T00:59:00.728Z,62.69
2023-02-18T00:59:07.757Z,62.50
2023-02-18T00:59:26.831Z,62.63
2023-02-18T00:59:33.881Z,62.77
2023-02-18T00:59:41.408Z,62.54
2023-02-18T00:59:48.435Z,62.24
2023-02-18T00:59:55.435Z,62.22
2023-02-18T01:00:15.038Z,61.93
2023-02-18T01:00:25.531Z,62.40
2023-02-18T01:00:32.755Z,62.20
2023-02-18T01:00:39.881Z,62.59
2023-02-18T01:00:47.014Z,62.81
2023-02-18T01:01:07.629Z,62.48
2023-02-18T01:01:14.916Z,62.61
2023-02-18T01:01:22.227Z,61.98
2023-02-18T01:01:29.312Z,62.32
2023-02-18T01:01:36.434Z,62.12
2023-02-18T01:01:56.589Z,62.58
2023-02-18T01:02:03.881Z,62.19
2023-02-18T01:02:10.918Z,62.40
2023-02-18T01:02:17.977Z,62.67
2023-02-18T01:02:37.206Z,63.23
2023-02-18T01:02:44.607Z,62.66
2023-02-18T01:02:54.143Z,62.93
2023-02-18T01:03:03.014Z,62.63
2023-02-18T01:03:11.139Z,62.44
2023-02-18T01:03:18.338Z,62.03
2023-02-18T01:03:25.602Z,62.22
2023-02-18T01:03:45.285Z,62.75
2023-02-18T01:03:53.502Z,62.58
2023-02-18T01:04:01.100Z,62.69
2023-02-18T01:04:08.390Z,62.94
2023-02-18T01:04:15.409Z,62.95
2023-02-18T01:04:30.554Z,63.55
2023-02-18T01:04:37.691Z,63.41
2023-02-18T01:04:58.052Z,63.80
2023-02-18T01:05:05.577Z,63.99
2023-02-18T01:05:13.672Z,63.92
2023-02-18T01:05:21.096Z,63.84
2023-02-18T01:05:28.073Z,63.96
2023-02-18T01:05:35.474Z,64.09
2023-02-18T01:05:54.841Z,64.08
2023-02-18T01:06:02.923Z,64.06
2023-02-18T01:06:10.507Z,64.31
2023-02-18T01:06:17.890Z,64.08
2023-02-18T01:06:36.911Z,64.35
2023-02-18T01:06:44.066Z,64.12
2023-02-18T01:06:51.091Z,64.60
2023-02-18T01:06:58.160Z,64.53
2023-02-18T01:07:18.210Z,64.59
2023-02-18T01:07:25.411Z,64.89
2023-02-18T01:07:32.422Z,64.43
2023-02-18T01:07:39.600Z,64.67
2023-02-18T01:07:46.660Z,64.40
2023-02-18T01:08:05.780Z,64.33
2023-02-18T01:08:13.036Z,64.18
2023-02-18T01:08:20.845Z,64.20
2023-02-18T01:08:28.111Z,63.58
2023-02-18T01:08:35.726Z,63.17
2023-02-18T01:08:56.025Z,63.75
2023-02-18T01:09:04.231Z,64.75
2023-02-18T01:09:11.326Z,64.07
2023-02-18T01:09:18.317Z,64.51
2023-02-18T01:09:25.904Z,64.61
2023-02-18T01:09:46.323Z,64.77
2023-02-18T01:09:54.065Z,65.23
2023-02-18T01:10:01.148Z,65.70
2023-02-18T01:10:08.546Z,65.79
2023-02-18T01:10:19.146Z,65.95
2023-02-18T01:10:26.758Z,65.73
2023-02-18T01:10:47.235Z,66.08
2023-02-18T01:10:55.672Z,65.98
2023-02-18T01:11:03.527Z,65.37
2023-02-18T01:11:11.935Z,65.99
2023-02-18T01:11:19.458Z,65.38
2023-02-18T01:11:26.717Z,64.96
2023-02-18T01:11:46.995Z,64.62
2023-02-18T01:11:54.036Z,65.34
2023-02-18T01:12:01.131Z,64.90
2023-02-18T01:12:08.232Z,64.81
2023-02-18T01:12:15.494Z,65.25
2023-02-18T01:12:34.923Z,65.31
2023-02-18T01:12:41.922Z,65.82
2023-02-18T01:12:48.933Z,65.45
2023-02-18T01:12:56.115Z,65.77
2023-02-18T01:13:16.990Z,65.44
2023-02-18T01:13:26.271Z,65.52
2023-02-18T01:13:33.429Z,65.15
2023-02-18T01:13:40.818Z,65.66
2023-02-18T01:13:47.909Z,65.64
2023-02-18T01:14:09.679Z,65.68
2023-02-18T01:14:16.819Z,65.49
2023-02-18T01:14:24.446Z,65.35
2023-02-18T01:14:31.497Z,65.60
2023-02-18T01:14:39.546Z,65.46
2023-02-18T01:14:46.563Z,65.33
2023-02-18T01:15:06.706Z,65.22
2023-02-18T01:15:15.286Z,64.95
2023-02-18T01:15:22.691Z,64.79
2023-02-18T01:15:29.849Z,64.63
2023-02-18T01:15:36.983Z,64.60
2023-02-18T01:15:56.541Z,65.18
2023-02-18T01:16:03.820Z,65.37
2023-02-18T01:16:12.315Z,65.50
2023-02-18T01:16:19.634Z,65.62
2023-02-18T01:16:27.039Z,65.57
2023-02-18T01:16:48.545Z,65.76
2023-02-18T01:16:55.584Z,65.90
2023-02-18T01:17:02.643Z,66.23
2023-02-18T01:17:09.786Z,66.13
2023-02-18T01:17:17.789Z,66.07
2023-02-18T01:17:31.850Z,66.15
2023-02-18T01:17:38.882Z,66.25
2023-02-18T01:17:45.935Z,66.13
2023-02-18T01:18:05.276Z,65.45
2023-02-18T01:18:14.696Z,64.45
2023-02-18T01:18:21.905Z,63.97
2023-02-18T01:18:28.983Z,63.32
2023-02-18T01:18:38.050Z,63.40
2023-02-18T01:18:57.079Z,62.37
2023-02-18T01:19:06.258Z,62.00
2023-02-18T01:19:13.286Z,62.12
2023-02-18T01:19:20.380Z,62.31
2023-02-18T01:19:27.371Z,61.96
2023-02-18T01:19:46.550Z,61.52
2023-02-18T01:19:54.669Z,62.11
2023-02-18T01:20:02.207Z,62.24
2023-02-18T01:20:10.063Z,62.51
2023-02-18T01:20:17.134Z,62.96
2023-02-18T01:20:36.975Z,62.86
2023-02-18T01:20:44.600Z,62.90
2023-02-18T01:20:51.849Z,62.97
2023-02-18T01:20:59.849Z,63.32
2023-02-18T01:21:08.702Z,62.84
2023-02-18T01:21:17.555Z,63.28
2023-02-18T01:21:36.602Z,62.69
2023-02-18T01:21:43.757Z,62.18
2023-02-18T01:21:50.792Z,62.81
2023-02-18T01:21:57.870Z,62.95
2023-02-18T01:22:06.846Z,62.90
2023-02-18T01:22:15.280Z,63.42
2023-02-18T01:22:34.781Z,62.61
2023-02-18T01:22:43.526Z,62.75
2023-02-18T01:22:50.597Z,62.27
2023-02-18T01:22:57.646Z,62.55
2023-02-18T01:23:17.774Z,61.91
2023-02-18T01:23:24.828Z,62.38
2023-02-18T01:23:31.922Z,62.28
2023-02-18T01:23:39.822Z,62.68
2023-02-18T01:23:47.329Z,62.63
2023-02-18T01:23:58.269Z,62.66
2023-02-18T01:24:05.802Z,62.14
2023-02-18T01:24:24.839Z,61.87
2023-02-18T01:24:31.861Z,62.05
2023-02-18T01:24:40.485Z,62.37
2023-02-18T01:24:48.917Z,63.00
2023-02-18T01:24:55.973Z,62.87
2023-02-18T01:25:15.202Z,63.27
2023-02-18T01:25:22.322Z,62.82
2023-02-18T01:25:30.400Z,63.24
2023-02-18T01:25:37.510Z,62.28
2023-02-18T01:25:57.538Z,62.69
2023-02-18T01:26:05.045Z,62.25
2023-02-18T01:26:12.330Z,62.55
2023-02-18T01:26:19.486Z,62.38
2023-02-18T01:26:26.652Z,62.54
2023-02-18T01:26:45.648Z,62.96
2023-02-18T01:26:52.802Z,63.28
2023-02-18T01:27:00.901Z,63.22
2023-02-18T01:27:07.970Z,63.15
2023-02-18T01:27:27.051Z,63.24
2023-02-18T01:27:34.257Z,62.97
2023-02-18T01:27:42.025Z,63.18
2023-02-18T01:27:49.109Z,63.15
2023-02-18T01:27:56.554Z,63.39
2023-02-18T01:28:16.641Z,63.26
2023-02-18T01:28:26.000Z,63.29
2023-02-18T01:28:34.289Z,63.25
2023-02-18T01:28:41.667Z,63.63
2023-02-18T01:28:48.718Z,64.02
2023-02-18T01:28:55.743Z,63.94
2023-02-18T01:29:14.798Z,64.30
2023-02-18T01:29:22.944Z,64.23
2023-02-18T01:29:30.023Z,64.55
2023-02-18T01:29:37.036Z,64.63
2023-02-18T01:29:56.275Z,65.11
2023-02-18T01:30:05.245Z,65.05
2023-02-18T01:30:14.347Z,65.32
2023-02-18T01:30:22.365Z,65.21
2023-02-18T01:30:29.510Z,65.39
2023-02-18T01:30:36.673Z,65.31
2023-02-18T01:30:56.836Z,65.67
2023-02-18T01:31:07.006Z,65.77
2023-02-18T01:31:14.465Z,65.83
2023-02-18T01:31:21.717Z,65.95
2023-02-18T01:31:28.794Z,65.48
2023-02-18T01:31:36.991Z,65.44
2023-02-18T01:31:56.209Z,65.33
2023-02-18T01:32:03.391Z,65.25
2023-02-18T01:32:10.563Z,65.00
2023-02-18T01:32:17.773Z,65.16
2023-02-18T01:32:37.007Z,65.23
2023-02-18T01:32:44.182Z,65.43
2023-02-18T01:32:51.592Z,65.36
2023-02-18T01:32:58.682Z,65.20
2023-02-18T01:33:06.834Z,64.93
2023-02-18T01:33:25.786Z,65.16
2023-02-18T01:33:33.070Z,65.05
2023-02-18T01:33:41.558Z,65.10
2023-02-18T01:33:48.616Z,65.24
2023-02-18T01:33:55.656Z,65.12
2023-02-18T01:34:15.834Z,65.41
2023-02-18T01:34:22.979Z,65.69
2023-02-18T01:34:30.841Z,65.96
2023-02-18T01:34:39.556Z,65.67
2023-02-18T01:34:46.693Z,65.81
2023-02-18T01:35:08.304Z,65.84
2023-02-18T01:35:16.835Z,65.72
2023-02-18T01:35:24.373Z,65.60
2023-02-18T01:35:31.498Z,65.45
2023-02-18T01:35:39.443Z,65.46
2023-02-18T01:35:46.876Z,65.45
2023-02-18T01:36:07.924Z,65.51
2023-02-18T01:36:15.340Z,65.41
2023-02-18T01:36:22.360Z,65.57
2023-02-18T01:36:29.476Z,65.49
2023-02-18T01:36:37.023Z,65.41
2023-02-18T01:36:57.424Z,65.32
2023-02-18T01:37:04.601Z,65.72
2023-02-18T01:37:11.743Z,65.85
2023-02-18T01:37:19.798Z,65.56
2023-02-18T01:37:26.931Z,65.28
2023-02-18T01:37:46.684Z,65.54
2023-02-18T01:37:53.727Z,65.66
2023-02-18T01:38:00.823Z,65.84
2023-02-18T01:38:08.213Z,65.55
2023-02-18T01:38:15.497Z,65.25
2023-02-18T01:38:35.791Z,65.02
2023-02-18T01:38:43.986Z,65.26
2023-02-18T01:38:51.042Z,65.25
2023-02-18T01:38:58.080Z,65.26
2023-02-18T01:39:05.354Z,64.85
2023-02-18T01:39:24.442Z,64.14
2023-02-18T01:39:31.474Z,64.29
2023-02-18T01:39:38.553Z,64.45
2023-02-18T01:39:46.236Z,63.99
2023-02-18T01:40:07.873Z,63.68
2023-02-18T01:40:16.856Z,63.48
2023-02-18T01:40:25.950Z,63.11
2023-02-18T01:40:33.506Z,63.01
2023-02-18T01:40:45.719Z,62.84
2023-02-18T01:40:53.108Z,62.64
2023-02-18T01:41:01.152Z,62.47
2023-02-18T01:41:09.384Z,62.76
2023-02-18T01:41:16.404Z,62.90
2023-02-18T01:41:36.524Z,63.66
2023-02-18T01:41:43.609Z,63.54
2023-02-18T01:41:51.702Z,63.72
2023-02-18T01:41:58.757Z,63.93
2023-02-18T01:42:06.044Z,64.01
2023-02-18T01:42:18.531Z,64.01
2023-02-18T01:42:26.383Z,64.34
2023-02-18T01:42:41.150Z,64.59
2023-02-18T01:42:48.520Z,64.62
2023-02-18T01:42:57.334Z,64.46
2023-02-18T01:43:17.750Z,64.10
2023-02-18T01:43:24.925Z,64.39
2023-02-18T01:43:32.283Z,63.70
2023-02-18T01:43:39.806Z,63.38
2023-02-18T01:43:46.875Z,63.45
2023-02-18T01:44:08.746Z,63.52
2023-02-18T01:44:17.214Z,63.75
2023-02-18T01:44:26.691Z,63.61
2023-02-18T01:44:34.326Z,63.72
2023-02-18T01:44:41.396Z,63.70
2023-02-18T01:44:50.024Z,64.09
2023-02-18T01:45:12.952Z,64.09
2023-02-18T01:45:47.924Z,63.31
2023-02-18T01:45:59.520Z,62.97
2023-02-18T01:46:17.400Z,62.12
2023-02-18T01:46:26.818Z,61.79
2023-02-18T01:46:33.871Z,62.21
2023-02-18T01:46:41.177Z,62.03
2023-02-18T01:46:49.282Z,62.19
2023-02-18T01:46:56.771Z,62.30
2023-02-18T01:47:04.411Z,62.74
2023-02-18T01:47:11.558Z,62.76
2023-02-18T01:47:18.987Z,63.02
2023-02-18T01:47:26.197Z,63.11
2023-02-18T01:47:33.247Z,63.31
2023-02-18T01:47:40.266Z,63.40
2023-02-18T01:47:47.323Z,63.32
2023-02-18T01:47:54.517Z,63.17
2023-02-18T01:48:04.085Z,63.14
2023-02-18T01:48:14.158Z,63.50
2023-02-18T01:48:24.796Z,63.65
2023-02-18T01:48:36.424Z,63.71
2023-02-18T01:48:46.935Z,63.96
2023-02-18T01:48:55.348Z,63.91
2023-02-18T01:49:03.151Z,63.85
2023-02-18T01:49:14.477Z,62.89
2023-02-18T01:49:24.188Z,63.08
2023-02-18T01:49:34.174Z,62.76
2023-02-18T01:49:41.669Z,62.34
2023-02-18T01:49:52.047Z,62.64
2023-02-18T01:49:59.231Z,62.41
2023-02-18T01:50:07.167Z,62.70
2023-02-18T01:50:14.217Z,62.86
2023-02-18T01:50:21.268Z,62.51
2023-02-18T01:50:29.082Z,62.67
2023-02-18T01:50:50.469Z,63.11
2023-02-18T01:51:00.431Z,63.44
2023-02-18T01:51:09.677Z,63.02
2023-02-18T01:51:20.389Z,63.23
2023-02-18T01:51:28.920Z,63.21
2023-02-18T01:51:37.963Z,62.69
2023-02-18T01:51:47.197Z,62.93
2023-02-18T01:51:56.629Z,62.57
2023-02-18T01:52:05.240Z,62.33
2023-02-18T01:52:14.791Z,62.27
2023-02-18T01:52:24.595Z,61.75
2023-02-18T01:52:33.228Z,61.63
2023-02-18T01:52:40.575Z,61.63
2023-02-18T01:52:48.084Z,61.88
2023-02-18T01:53:12.102Z,62.19
2023-02-18T01:53:22.015Z,62.38
2023-02-18T01:53:31.479Z,62.31
2023-02-18T01:53:41.066Z,62.20
2023-02-18T01:53:51.123Z,62.24
2023-02-18T01:54:00.928Z,62.13
2023-02-18T01:54:10.219Z,61.75
2023-02-18T01:54:20.185Z,61.59
2023-02-18T01:54:29.398Z,61.65
2023-02-18T01:54:39.793Z,61.34
2023-02-18T01:54:49.851Z,61.27
2023-02-18T01:54:59.121Z,61.65
2023-02-18T01:55:08.739Z,61.77
2023-02-18T01:55:16.346Z,61.74
2023-02-18T01:55:23.738Z,61.82
2023-02-18T01:55:30.933Z,61.56
2023-02-18T01:55:39.401Z,61.64
2023-02-18T01:55:48.753Z,61.77
2023-02-18T01:56:10.535Z,61.95
2023-02-18T01:56:21.285Z,62.14
2023-02-18T01:56:29.790Z,62.18
2023-02-18T01:56:39.692Z,62.20
2023-02-18T01:56:49.748Z,61.73
2023-02-18T01:56:58.974Z,61.53
2023-02-18T01:57:07.785Z,60.87
2023-02-18T01:57:17.007Z,60.19
2023-02-18T01:57:31.420Z,58.57
2023-02-18T01:57:38.989Z,58.15
2023-02-18T01:57:46.318Z,57.71
2023-02-18T01:57:53.822Z,57.74
2023-02-18T01:58:01.113Z,58.14
2023-02-18T01:58:10.914Z,58.41
2023-02-18T01:58:18.252Z,58.42
2023-02-18T01:58:39.593Z,58.88
2023-02-18T01:58:47.865Z,58.86
2023-02-18T01:58:57.343Z,58.83
2023-02-18T01:59:13.210Z,58.88
2023-02-18T01:59:21.974Z,58.67
2023-02-18T01:59:31.924Z,58.58
2023-02-18T01:59:40.049Z,59.08
2023-02-18T01:59:51.168Z,59.38
2023-02-18T01:59:59.578Z,59.38
2023-02-18T02:00:08.719Z,59.33
2023-02-18T02:00:22.101Z,59.85
2023-02-18T02:00:29.262Z,59.85
2023-02-18T02:00:37.180Z,60.45
2023-02-18T02:00:44.375Z,60.49
2023-02-18T02:00:51.470Z,60.45
2023-02-18T02:00:58.578Z,60.38
2023-02-18T02:01:19.294Z,60.49
2023-02-18T02:01:27.014Z,60.41
2023-02-18T02:01:35.120Z,60.52
2023-02-18T02:01:44.078Z,60.10
2023-02-18T02:01:51.199Z,60.29
2023-02-18T02:01:58.656Z,60.09
2023-02-18T02:02:20.443Z,60.00
2023-02-18T02:02:28.557Z,59.65
2023-02-18T02:02:37.815Z,59.76
2023-02-18T02:02:46.032Z,59.83
2023-02-18T02:02:53.378Z,59.70
2023-02-18T02:03:00.370Z,59.79
2023-02-18T02:03:07.789Z,60.09
2023-02-18T02:03:27.074Z,60.27
2023-02-18T02:03:34.117Z,60.72
2023-02-18T02:03:41.146Z,60.74
2023-02-18T02:03:48.232Z,60.63
2023-02-18T02:04:09.307Z,60.78
2023-02-18T02:04:16.446Z,60.73
2023-02-18T02:04:23.620Z,61.07
2023-02-18T02:04:30.824Z,60.75
2023-02-18T02:04:38.045Z,60.91
2023-02-18T02:04:57.550Z,60.58
2023-02-18T02:05:04.782Z,60.04
2023-02-18T02:05:12.771Z,60.46
2023-02-18T02:05:20.586Z,60.43
2023-02-18T02:05:31.172Z,60.61
2023-02-18T02:05:38.322Z,60.56
2023-02-18T02:05:58.347Z,61.33
2023-02-18T02:06:10.380Z,61.29
2023-02-18T02:06:18.771Z,61.45
2023-02-18T02:06:29.152Z,61.61
2023-02-18T02:06:36.232Z,61.67
2023-02-18T02:06:43.670Z,61.80
2023-02-18T02:06:50.758Z,61.88
2023-02-18T02:06:57.834Z,62.01
2023-02-18T02:07:19.750Z,62.55
2023-02-18T02:07:28.607Z,62.41
2023-02-18T02:07:35.640Z,62.71
2023-02-18T02:07:43.519Z,62.47
2023-02-18T02:07:52.088Z,62.57
2023-02-18T02:07:59.981Z,62.70
2023-02-18T02:08:09.644Z,62.49
2023-02-18T02:08:30.239Z,62.94
2023-02-18T02:08:37.389Z,62.63
2023-02-18T02:08:45.682Z,62.34